Time;durP1;ratioP1;P1;durP2;ratioP2;P2;SDS_P1;SDS_P2;PMS_P1;PMS_P2;Temp;Humidity;BMP_temperature;BMP_pressure;BME280_temperature;BME280_humidity;BME280_pressure;Samples;Min_cycle;Max_cycle;Signal;HPM_P1;HPM_P2
2020/12/04 00:02:22;;;;;;;15.32;8.93;;;3.10;99.90;;;;;;5096904;28;20044;-78
2020/12/04 00:04:48;;;;;;;15.88;8.70;;;3.10;99.90;;;;;;5097310;28;20036;-77
2020/12/04 00:07:14;;;;;;;13.90;7.57;;;3.20;99.90;;;;;;5096628;28;20039;-77
2020/12/04 00:09:42;;;;;;;15.68;8.85;;;3.30;99.90;;;;;;5097103;28;20461;-78
2020/12/04 00:12:09;;;;;;;15.23;9.32;;;3.30;99.90;;;;;;5095563;28;20042;-78
2020/12/04 00:14:35;;;;;;;15.93;9.07;;;3.40;99.90;;;;;;5096544;28;20039;-77
2020/12/04 00:17:01;;;;;;;15.40;8.63;;;3.40;99.90;;;;;;5094638;28;20366;-78
2020/12/04 00:19:27;;;;;;;13.60;8.30;;;3.40;99.90;;;;;;5095885;28;20370;-78
2020/12/04 00:21:53;;;;;;;12.23;7.57;;;3.50;99.90;;;;;;5094996;28;20035;-78
2020/12/04 00:24:20;;;;;;;12.88;7.93;;;3.50;99.90;;;;;;5094543;28;20393;-78
2020/12/04 00:26:46;;;;;;;14.98;8.68;;;3.50;99.90;;;;;;5097039;28;20024;-78
2020/12/04 00:29:13;;;;;;;13.27;7.35;;;3.50;99.90;;;;;;5097676;28;20032;-78
2020/12/04 00:31:39;;;;;;;13.40;8.48;;;3.50;99.90;;;;;;5096592;28;20060;-79
2020/12/04 00:34:05;;;;;;;14.63;8.45;;;3.50;99.90;;;;;;5096053;28;20036;-77
2020/12/04 00:36:31;;;;;;;12.82;7.90;;;3.50;99.90;;;;;;5096145;28;20043;-78
2020/12/04 00:38:58;;;;;;;14.48;8.52;;;3.50;99.90;;;;;;5095983;28;20035;-78
2020/12/04 00:41:25;;;;;;;13.90;8.73;;;3.50;99.90;;;;;;5097260;28;20035;-78
2020/12/04 00:43:51;;;;;;;14.18;8.40;;;3.50;99.90;;;;;;5095061;28;20036;-77
2020/12/04 00:46:18;;;;;;;15.43;9.35;;;3.50;99.90;;;;;;5095976;28;20373;-78
2020/12/04 00:48:44;;;;;;;14.60;8.77;;;3.40;99.90;;;;;;5095686;28;20036;-78
2020/12/04 00:51:11;;;;;;;13.30;8.48;;;3.50;99.90;;;;;;5095694;28;20044;-78
2020/12/04 00:53:37;;;;;;;15.10;8.88;;;3.50;99.90;;;;;;5095386;28;20396;-78
2020/12/04 00:56:04;;;;;;;14.25;8.40;;;3.50;99.90;;;;;;5096078;28;20036;-78
2020/12/04 00:58:33;;;;;;;12.45;7.88;;;3.60;99.90;;;;;;5096013;28;20044;-78
2020/12/04 01:01:00;;;;;;;16.58;8.82;;;3.50;99.90;;;;;;5094495;28;20055;-78
2020/12/04 01:03:27;;;;;;;13.05;8.52;;;3.60;99.90;;;;;;5094997;28;20052;-79
2020/12/04 01:05:54;;;;;;;11.93;7.68;;;3.50;99.90;;;;;;5094861;28;20036;-77
2020/12/04 01:08:20;;;;;;;12.82;8.23;;;3.60;99.90;;;;;;5096066;28;20372;-78
2020/12/04 01:10:47;;;;;;;14.65;7.47;;;3.60;99.90;;;;;;5098023;28;20040;-79
2020/12/04 01:13:14;;;;;;;13.52;8.40;;;3.70;99.90;;;;;;5095287;28;20488;-78
2020/12/04 01:15:40;;;;;;;14.93;7.90;;;3.70;99.90;;;;;;5097227;28;20457;-78
2020/12/04 01:18:06;;;;;;;440.70;195.98;;;3.70;99.90;;;;;;5095360;28;20040;-78
2020/12/04 01:20:33;;;;;;;277.17;123.78;;;3.80;99.90;;;;;;5096319;28;20024;-77
2020/12/04 01:22:59;;;;;;;257.08;95.88;;;3.80;99.90;;;;;;5097808;28;20020;-77
2020/12/04 01:25:25;;;;;;;210.18;72.93;;;3.80;99.90;;;;;;5099624;28;20424;-78
2020/12/04 01:27:52;;;;;;;52.38;23.83;;;3.80;99.90;;;;;;5097357;28;20032;-78
2020/12/04 01:30:18;;;;;;;30.65;14.05;;;3.90;99.90;;;;;;5100408;28;20036;-78
2020/12/04 01:32:46;;;;;;;56.55;25.98;;;3.90;99.90;;;;;;5100721;28;20056;-78
2020/12/04 01:35:12;;;;;;;47.67;24.10;;;3.90;99.90;;;;;;5098101;28;20039;-79
2020/12/04 01:37:38;;;;;;;107.93;47.22;;;3.90;99.90;;;;;;5095743;28;20031;-78
2020/12/04 01:40:05;;;;;;;42.22;20.13;;;3.90;99.90;;;;;;5094774;28;20019;-79
2020/12/04 01:42:31;;;;;;;14.93;8.80;;;4.00;99.90;;;;;;5097032;28;20032;-78
2020/12/04 01:44:59;;;;;;;38.63;20.10;;;4.00;99.90;;;;;;5096013;28;20060;-78
2020/12/04 01:47:26;;;;;;;23.27;12.95;;;4.00;99.90;;;;;;5096991;28;20028;-78
2020/12/04 01:49:52;;;;;;;14.32;8.23;;;4.10;99.90;;;;;;5095840;28;20028;-77
2020/12/04 01:52:18;;;;;;;33.55;17.58;;;4.10;99.90;;;;;;5095907;28;20040;-78
2020/12/04 01:54:47;;;;;;;16.42;9.93;;;4.00;99.90;;;;;;5095384;28;20483;-78
2020/12/04 01:57:19;;;;;;;13.75;7.30;;;4.20;99.90;;;;;;5094417;28;20035;-78
2020/12/04 01:59:47;;;;;;;11.75;7.85;;;4.30;99.90;;;;;;5093555;28;20028;-78
2020/12/04 02:02:23;;;;;;;27.90;17.55;;;4.30;99.90;;;;;;5095073;28;20047;-77
2020/12/04 02:04:50;;;;;;;14.93;8.23;;;4.30;99.90;;;;;;5094496;28;20055;-78
2020/12/04 02:07:34;;;;;;;19.38;11.07;;;4.40;99.90;;;;;;5093784;28;20035;-78
2020/12/04 02:10:09;;;;;;;14.75;8.82;;;4.30;99.90;;;;;;5094505;28;20028;-77
2020/12/04 02:12:36;;;;;;;22.23;13.45;;;4.30;99.90;;;;;;5095119;28;20484;-77
2020/12/04 02:15:03;;;;;;;13.65;7.78;;;4.40;99.90;;;;;;5094011;28;20031;-78
2020/12/04 02:17:32;;;;;;;15.02;8.38;;;4.40;99.90;;;;;;5094482;28;20048;-78
2020/12/04 02:19:59;;;;;;;13.60;8.40;;;4.40;99.90;;;;;;5093214;28;20035;-78
2020/12/04 02:22:32;;;;;;;9.35;6.32;;;4.50;99.90;;;;;;5094853;28;20024;-78
2020/12/04 02:24:59;;;;;;;14.68;8.40;;;4.50;99.90;;;;;;5093812;28;20036;-78
2020/12/04 02:27:25;;;;;;;10.45;6.95;;;4.60;99.90;;;;;;5093359;28;20031;-78
2020/12/04 02:29:51;;;;;;;11.65;7.30;;;4.70;99.90;;;;;;5094389;28;20345;-78
2020/12/04 02:32:18;;;;;;;10.05;5.85;;;4.80;99.90;;;;;;5093314;28;20056;-78
2020/12/04 02:34:44;;;;;;;11.18;6.40;;;4.90;99.90;;;;;;5093861;28;20123;-78
2020/12/04 02:37:11;;;;;;;12.13;6.28;;;4.90;99.90;;;;;;5092202;28;20036;-78
2020/12/04 02:39:37;;;;;;;11.15;6.70;;;4.90;99.90;;;;;;5093811;28;20039;-78
2020/12/04 02:42:05;;;;;;;13.68;7.50;;;4.80;99.90;;;;;;5092729;28;20357;-78
2020/12/04 02:44:32;;;;;;;8.73;5.57;;;4.80;99.90;;;;;;5094569;28;20491;-78
2020/12/04 02:46:58;;;;;;;11.43;6.15;;;4.80;99.90;;;;;;5093978;28;20056;-77
2020/12/04 02:49:25;;;;;;;8.50;5.50;;;5.00;99.90;;;;;;5096346;28;20040;-78
2020/12/04 02:51:52;;;;;;;10.10;5.47;;;5.00;99.90;;;;;;5095395;28;20035;-78
2020/12/04 02:54:18;;;;;;;9.73;6.05;;;5.00;99.90;;;;;;5093543;28;20047;-78
2020/12/04 02:56:45;;;;;;;9.18;5.07;;;5.00;99.90;;;;;;5096195;28;20055;-78
2020/12/04 02:59:11;;;;;;;10.90;5.32;;;5.20;99.90;;;;;;5094290;28;20036;-78
2020/12/04 03:01:37;;;;;;;10.95;5.43;;;5.20;99.90;;;;;;5093123;28;20055;-77
2020/12/04 03:04:04;;;;;;;10.18;5.47;;;5.20;99.90;;;;;;5094171;28;20429;-78
2020/12/04 03:06:30;;;;;;;11.52;5.22;;;5.20;99.90;;;;;;5094520;28;20032;-78
2020/12/04 03:08:57;;;;;;;7.95;4.97;;;5.20;99.90;;;;;;5093334;28;20028;-78
2020/12/04 03:11:24;;;;;;;8.68;4.80;;;5.20;99.90;;;;;;5093272;28;20036;-78
2020/12/04 03:13:51;;;;;;;8.40;5.07;;;5.20;99.90;;;;;;5092511;28;20028;-78
2020/12/04 03:16:18;;;;;;;7.90;4.82;;;5.20;99.90;;;;;;5094996;28;20051;-78
2020/12/04 03:18:44;;;;;;;10.35;5.88;;;5.20;99.90;;;;;;5097613;28;20028;-77
2020/12/04 03:21:11;;;;;;;7.93;4.60;;;5.10;99.90;;;;;;5096706;28;20036;-77
2020/12/04 03:23:37;;;;;;;9.38;5.40;;;5.00;99.90;;;;;;5098066;28;20039;-77
2020/12/04 03:26:04;;;;;;;30.85;15.38;;;5.00;99.90;;;;;;5097214;28;20032;-77
2020/12/04 03:28:30;;;;;;;56.60;23.70;;;4.90;99.90;;;;;;5097582;28;20039;-78
2020/12/04 03:30:56;;;;;;;38.45;16.67;;;4.80;99.90;;;;;;5097141;28;20036;-77
2020/12/04 03:33:22;;;;;;;73.13;28.63;;;4.70;99.90;;;;;;5096862;28;20043;-77
2020/12/04 03:35:49;;;;;;;32.55;16.33;;;4.60;99.90;;;;;;5097840;28;20032;-77
2020/12/04 03:38:16;;;;;;;37.83;17.10;;;4.60;99.90;;;;;;5096566;28;20101;-78
2020/12/04 03:40:44;;;;;;;25.73;13.05;;;4.60;99.90;;;;;;5097549;28;20043;-78
2020/12/04 03:43:11;;;;;;;30.75;13.82;;;4.50;99.90;;;;;;5096632;28;20039;-78
2020/12/04 03:45:37;;;;;;;50.95;24.67;;;4.40;99.90;;;;;;5096305;28;20062;-78
2020/12/04 03:48:04;;;;;;;19.15;11.90;;;4.40;99.90;;;;;;5095990;28;20384;-78
2020/12/04 03:50:30;;;;;;;12.70;6.97;;;4.40;99.90;;;;;;5095923;28;20066;-78
2020/12/04 03:52:56;;;;;;;11.40;6.20;;;4.40;99.90;;;;;;5095739;28;20039;-78
2020/12/04 03:55:22;;;;;;;12.07;6.47;;;4.40;99.90;;;;;;5095375;28;20039;-77
2020/12/04 03:57:48;;;;;;;11.35;6.60;;;4.50;99.90;;;;;;5095364;28;20024;-78
2020/12/04 04:00:15;;;;;;;8.50;5.85;;;4.50;99.90;;;;;;5095474;28;20031;-77
2020/12/04 04:02:41;;;;;;;9.50;5.97;;;4.60;99.90;;;;;;5096061;28;20141;-78
2020/12/04 04:05:07;;;;;;;12.52;6.75;;;4.50;99.90;;;;;;5094572;28;20210;-77
2020/12/04 04:07:33;;;;;;;11.00;6.93;;;4.50;99.90;;;;;;5095599;28;20457;-78
2020/12/04 04:10:00;;;;;;;10.82;5.72;;;4.60;99.90;;;;;;5095664;28;20032;-77
2020/12/04 04:12:26;;;;;;;8.98;5.72;;;4.60;99.90;;;;;;5095057;28;20024;-78
2020/12/04 04:14:52;;;;;;;9.65;5.63;;;4.70;99.90;;;;;;5095385;28;20047;-78
2020/12/04 04:17:18;;;;;;;10.20;6.10;;;4.80;99.90;;;;;;5094791;28;20028;-78
2020/12/04 04:19:45;;;;;;;10.50;5.75;;;4.70;99.90;;;;;;5095105;28;20032;-77
2020/12/04 04:22:11;;;;;;;10.73;5.20;;;4.80;99.90;;;;;;5094561;28;20043;-78
2020/12/04 04:24:37;;;;;;;8.88;5.32;;;4.80;99.90;;;;;;5095426;28;20048;-78
2020/12/04 04:27:04;;;;;;;9.50;5.78;;;4.70;99.90;;;;;;5094480;28;20035;-76
2020/12/04 04:29:30;;;;;;;8.70;4.47;;;4.80;99.90;;;;;;5094931;28;20032;-78
2020/12/04 04:31:56;;;;;;;8.40;4.75;;;4.90;99.90;;;;;;5094751;28;20048;-77
2020/12/04 04:34:22;;;;;;;8.85;5.53;;;4.80;99.90;;;;;;5094284;28;20024;-77
2020/12/04 04:36:49;;;;;;;8.15;4.95;;;4.90;99.90;;;;;;5094605;28;20031;-77
2020/12/04 04:39:16;;;;;;;8.68;5.13;;;4.90;99.90;;;;;;5093914;28;20024;-77
2020/12/04 04:41:42;;;;;;;9.38;5.15;;;4.90;99.90;;;;;;5094631;28;20024;-77
2020/12/04 04:44:12;;;;;;;9.10;5.30;;;4.90;99.90;;;;;;5093101;28;20036;-77
2020/12/04 04:46:51;;;;;;;8.70;4.68;;;4.90;99.90;;;;;;5094425;28;20472;-78
2020/12/04 04:49:28;;;;;;;6.32;4.40;;;4.90;99.90;;;;;;5094162;28;20031;-77
2020/12/04 04:51:56;;;;;;;9.30;4.43;;;5.00;99.90;;;;;;5094960;28;20024;-78
2020/12/04 04:54:27;;;;;;;8.65;4.13;;;5.10;99.90;;;;;;5093697;28;20047;-78
2020/12/04 04:56:54;;;;;;;7.95;4.70;;;5.10;99.90;;;;;;5094621;28;20051;-78
2020/12/04 04:59:21;;;;;;;8.25;4.70;;;5.10;99.90;;;;;;5094134;28;20052;-78
2020/12/04 05:01:49;;;;;;;7.20;4.07;;;5.10;99.90;;;;;;5094999;28;20460;-77
2020/12/04 05:04:16;;;;;;;6.88;4.72;;;5.20;99.90;;;;;;5094155;28;20040;-78
2020/12/04 05:06:44;;;;;;;8.38;4.07;;;5.30;99.90;;;;;;5094575;28;20041;-78
2020/12/04 05:09:16;;;;;;;8.05;4.22;;;5.20;99.90;;;;;;5093931;28;20462;-78
2020/12/04 05:11:57;;;;;;;8.20;4.32;;;5.20;99.90;;;;;;5095049;28;20472;-78
2020/12/04 05:14:27;;;;;;;6.57;3.95;;;5.30;99.90;;;;;;5093735;28;20040;-78
2020/12/04 05:16:55;;;;;;;7.00;4.00;;;5.30;99.90;;;;;;5094859;28;20028;-78
2020/12/04 05:19:38;;;;;;;8.30;4.28;;;5.40;99.90;;;;;;5094140;28;20460;-78
2020/12/04 05:22:16;;;;;;;8.02;4.60;;;5.30;99.90;;;;;;5095768;28;20047;-78
2020/12/04 05:24:44;;;;;;;7.95;3.85;;;5.30;99.90;;;;;;5095784;28;20145;-78
2020/12/04 05:27:26;;;;;;;7.72;4.35;;;5.30;99.90;;;;;;5096776;28;20024;-76
2020/12/04 05:29:54;;;;;;;9.40;4.28;;;5.40;99.90;;;;;;5095847;28;20068;-79
2020/12/04 05:32:21;;;;;;;10.05;4.22;;;5.40;99.90;;;;;;5094245;28;20048;-79
2020/12/04 05:34:47;;;;;;;7.97;5.43;;;5.40;99.90;;;;;;5093880;28;20036;-77
2020/12/04 05:37:17;;;;;;;7.32;3.72;;;5.30;99.90;;;;;;5093306;28;20047;-77
2020/12/04 05:39:48;;;;;;;7.18;4.68;;;5.30;99.90;;;;;;5093410;28;20028;-79
2020/12/04 05:42:34;;;;;;;9.65;5.10;;;5.30;99.90;;;;;;5093018;28;20400;-79
2020/12/04 05:45:03;;;;;;;8.57;4.30;;;5.40;99.90;;;;;;5092138;28;20036;-79
2020/12/04 05:47:42;;;;;;;6.10;3.30;;;5.40;99.90;;;;;;5093519;28;20034;-78
2020/12/04 05:50:12;;;;;;;5.97;3.40;;;5.40;99.90;;;;;;5093837;28;20036;-77
2020/12/04 05:52:39;;;;;;;6.28;3.85;;;5.60;99.90;;;;;;5095072;28;20461;-79
2020/12/04 05:55:08;;;;;;;8.93;4.10;;;5.60;99.90;;;;;;5094698;28;20050;-80
2020/12/04 05:57:45;;;;;;;6.78;3.75;;;5.60;99.90;;;;;;5097966;28;20355;-79
2020/12/04 06:00:13;;;;;;;8.68;4.53;;;5.40;99.90;;;;;;5098088;28;20035;-80
2020/12/04 06:02:40;;;;;;;8.18;4.07;;;5.40;99.90;;;;;;5096440;28;20032;-79
2020/12/04 06:05:11;;;;;;;7.93;4.75;;;5.30;99.90;;;;;;5095155;28;20043;-79
2020/12/04 06:07:39;;;;;;;9.43;4.65;;;5.30;99.90;;;;;;5093762;28;20040;-79
2020/12/04 06:10:07;;;;;;;9.18;4.30;;;5.30;99.90;;;;;;5093598;28;20046;-80
2020/12/04 06:12:33;;;;;;;8.45;4.32;;;5.20;99.90;;;;;;5092997;28;20354;-79
2020/12/04 06:15:21;;;;;;;10.00;4.32;;;5.10;99.90;;;;;;5093457;28;20032;-79
2020/12/04 06:17:48;;;;;;;7.30;3.90;;;5.10;99.90;;;;;;5092831;28;20032;-79
2020/12/04 06:20:22;;;;;;;6.50;4.30;;;5.10;99.90;;;;;;5092205;28;20028;-78
2020/12/04 06:23:04;;;;;;;134.02;67.90;;;5.10;99.90;;;;;;5093125;28;20028;-77
2020/12/04 06:25:52;;;;;;;26.90;15.93;;;5.10;99.90;;;;;;5092341;28;20032;-78
2020/12/04 06:28:23;;;;;;;14.85;7.68;;;5.10;99.90;;;;;;5092353;28;20054;-77
2020/12/04 06:30:59;;;;;;;18.83;11.20;;;5.00;99.90;;;;;;5092450;28;20036;-79
2020/12/04 06:33:51;;;;;;;19.30;12.02;;;5.00;99.90;;;;;;5092070;28;20040;-79
2020/12/04 06:36:30;;;;;;;47.30;24.30;;;5.00;99.90;;;;;;5088747;28;20044;-79
2020/12/04 06:38:58;;;;;;;10.63;6.57;;;4.90;99.90;;;;;;5092345;28;20028;-78
2020/12/04 06:41:28;;;;;;;17.27;11.07;;;5.00;99.90;;;;;;5092124;28;20457;-78
2020/12/04 06:44:06;;;;;;;17.10;8.00;;;5.00;99.90;;;;;;5092769;28;20042;-78
2020/12/04 06:46:34;;;;;;;12.75;8.00;;;5.10;99.90;;;;;;5073928;28;20078;-79
2020/12/04 06:52:15;;;;;;;10.35;6.63;;;4.90;99.90;;;;;;5090786;28;20032;-78
2020/12/04 06:54:45;;;;;;;42.03;21.63;;;4.90;99.90;;;;;;5092726;28;20035;-79
2020/12/04 06:57:12;;;;;;;20.60;11.57;;;4.90;99.90;;;;;;5091998;28;20032;-79
2020/12/04 06:59:40;;;;;;;63.80;29.60;;;4.90;99.90;;;;;;5091918;28;20130;-76
2020/12/04 07:02:07;;;;;;;13.05;7.65;;;4.90;99.90;;;;;;5091757;28;20040;-77
2020/12/04 07:04:36;;;;;;;55.30;25.67;;;5.00;99.90;;;;;;5091546;28;20040;-78
2020/12/04 07:07:11;;;;;;;13.40;7.15;;;5.00;99.90;;;;;;5092161;28;20464;-78
2020/12/04 07:09:39;;;;;;;99.57;47.22;;;5.00;99.90;;;;;;5091622;28;20032;-75
2020/12/04 07:12:08;;;;;;;33.03;18.33;;;5.00;99.90;;;;;;5092085;28;20039;-76
2020/12/04 07:14:34;;;;;;;43.95;22.38;;;5.00;99.90;;;;;;5091553;28;20357;-77
2020/12/04 07:17:00;;;;;;;49.90;24.63;;;5.00;99.90;;;;;;5091944;28;20036;-76
2020/12/04 07:19:27;;;;;;;15.50;7.05;;;5.10;99.90;;;;;;5091324;28;20031;-76
2020/12/04 07:21:54;;;;;;;13.02;7.95;;;5.10;99.90;;;;;;5092102;28;20133;-76
2020/12/04 07:24:20;;;;;;;36.97;15.23;;;5.20;99.90;;;;;;5091523;28;20050;-76
2020/12/04 07:26:51;;;;;;;41.90;18.33;;;5.10;99.90;;;;;;5091976;28;20040;-76
2020/12/04 07:29:18;;;;;;;37.15;18.60;;;5.10;99.90;;;;;;5091395;28;20048;-76
2020/12/04 07:31:46;;;;;;;98.97;43.83;;;5.10;99.90;;;;;;5091065;28;20036;-76
2020/12/04 07:34:17;;;;;;;24.75;13.30;;;5.20;99.90;;;;;;5091028;28;20032;-76
2020/12/04 07:36:55;;;;;;;74.72;34.38;;;5.20;99.90;;;;;;5091681;28;20032;-74
2020/12/04 07:39:32;;;;;;;26.20;13.57;;;5.30;99.90;;;;;;5091283;28;20028;-74
2020/12/04 07:42:00;;;;;;;15.60;7.93;;;5.30;99.90;;;;;;5091959;28;20028;-74
2020/12/04 07:44:36;;;;;;;17.35;8.02;;;5.30;99.90;;;;;;5090855;28;20044;-74
2020/12/04 07:47:12;;;;;;;10.25;5.10;;;5.40;99.90;;;;;;5091901;28;20036;-74
2020/12/04 07:49:48;;;;;;;12.40;8.13;;;5.40;99.90;;;;;;5091488;28;20036;-74
2020/12/04 07:52:35;;;;;;;20.45;11.88;;;5.40;99.90;;;;;;5092557;28;20373;-74
2020/12/04 07:55:10;;;;;;;14.82;8.65;;;5.40;99.90;;;;;;5091901;28;20043;-74
2020/12/04 07:57:53;;;;;;;11.38;5.72;;;5.40;99.90;;;;;;5091361;28;20047;-73
2020/12/04 08:00:20;;;;;;;8.02;4.63;;;5.40;99.90;;;;;;5091113;28;20028;-74
2020/12/04 08:02:46;;;;;;;28.05;13.60;;;5.50;99.90;;;;;;5094367;28;20043;-74
2020/12/04 08:05:22;;;;;;;13.65;8.77;;;5.40;99.90;;;;;;5094589;28;20055;-73
2020/12/04 08:07:52;;;;;;;11.43;6.10;;;5.40;99.90;;;;;;5095407;28;20047;-74
2020/12/04 08:10:20;;;;;;;14.38;9.85;;;5.40;99.90;;;;;;5094557;28;20028;-74
2020/12/04 08:12:49;;;;;;;12.77;5.85;;;5.40;99.90;;;;;;5094840;28;20032;-73
2020/12/04 08:15:19;;;;;;;8.55;4.43;;;5.40;99.90;;;;;;5094704;28;20044;-73
2020/12/04 08:17:45;;;;;;;8.68;5.63;;;5.40;99.90;;;;;;5095099;28;20024;-73
2020/12/04 08:20:17;;;;;;;8.50;5.18;;;5.40;99.90;;;;;;5094136;28;20032;-73
2020/12/04 08:22:48;;;;;;;10.73;6.25;;;5.40;99.90;;;;;;5094538;28;20039;-74
2020/12/04 08:25:23;;;;;;;9.82;5.88;;;5.40;99.90;;;;;;5094439;28;20035;-73
2020/12/04 08:27:49;;;;;;;12.95;9.65;;;5.40;99.90;;;;;;5093925;28;20472;-77
2020/12/04 08:30:24;;;;;;;10.38;7.88;;;5.60;99.90;;;;;;5093332;28;20043;-77
2020/12/04 08:32:59;;;;;;;9.02;5.80;;;5.70;99.90;;;;;;5094990;28;20048;-77
2020/12/04 08:35:34;;;;;;;8.13;4.85;;;5.80;99.90;;;;;;5093860;28;20385;-77
2020/12/04 08:38:12;;;;;;;10.10;6.32;;;5.80;99.90;;;;;;5096011;28;20376;-76
2020/12/04 08:40:46;;;;;;;11.35;9.38;;;5.90;99.90;;;;;;5093944;28;20469;-76
2020/12/04 08:43:18;;;;;;;15.35;9.80;;;6.10;99.90;;;;;;5094887;28;20032;-76
2020/12/04 08:45:48;;;;;;;7.90;6.00;;;6.10;99.90;;;;;;5094520;28;20032;-76
2020/12/04 08:48:22;;;;;;;9.32;7.03;;;6.10;99.90;;;;;;5094560;28;20357;-76
2020/12/04 08:50:51;;;;;;;9.32;5.65;;;6.20;99.90;;;;;;5097530;28;20028;-76
2020/12/04 08:53:19;;;;;;;8.88;6.03;;;6.30;99.90;;;;;;5094449;28;20384;-76
2020/12/04 08:55:47;;;;;;;7.50;4.18;;;6.40;99.90;;;;;;5094540;28;20357;-76
2020/12/04 08:58:15;;;;;;;7.85;3.88;;;6.70;99.90;;;;;;5094066;28;20047;-76
2020/12/04 09:00:43;;;;;;;8.65;4.15;;;6.90;99.90;;;;;;5093812;28;20037;-76
2020/12/04 09:03:10;;;;;;;7.90;4.32;;;6.90;99.90;;;;;;5094397;28;20055;-77
2020/12/04 09:05:36;;;;;;;6.35;4.10;;;7.00;99.90;;;;;;5093582;28;20385;-78
2020/12/04 09:08:03;;;;;;;9.18;4.35;;;6.90;99.90;;;;;;5094159;28;20457;-76
2020/12/04 09:10:29;;;;;;;104.63;43.72;;;7.00;99.90;;;;;;5092338;28;20044;-77
2020/12/04 09:12:56;;;;;;;98.75;48.70;;;7.00;99.90;;;;;;5093243;28;20028;-77
2020/12/04 09:15:25;;;;;;;17.30;9.30;;;7.00;99.90;;;;;;5093208;28;20032;-77
2020/12/04 09:17:51;;;;;;;19.60;11.43;;;7.00;99.90;;;;;;5093372;28;20040;-77
2020/12/04 09:20:18;;;;;;;40.95;22.38;;;7.10;99.90;;;;;;5094066;28;20035;-76
2020/12/04 09:22:44;;;;;;;32.53;19.80;;;7.10;99.90;;;;;;5093374;28;20382;-76
2020/12/04 09:25:13;;;;;;;36.17;21.42;;;7.10;99.90;;;;;;5094123;28;20032;-77
2020/12/04 09:27:40;;;;;;;10.00;6.10;;;7.20;99.90;;;;;;5093876;28;20039;-76
2020/12/04 09:30:09;;;;;;;7.90;4.63;;;7.20;99.90;;;;;;5095191;28;20028;-78
2020/12/04 09:32:36;;;;;;;8.85;6.40;;;7.20;99.90;;;;;;5094056;28;20051;-77
2020/12/04 09:35:04;;;;;;;6.75;4.28;;;7.30;99.90;;;;;;5092761;28;20032;-77
2020/12/04 09:37:35;;;;;;;8.25;4.43;;;7.40;99.90;;;;;;5093489;28;20039;-77
2020/12/04 09:40:10;;;;;;;7.03;3.78;;;7.30;99.90;;;;;;5093910;28;20028;-77
2020/12/04 09:42:37;;;;;;;8.52;4.63;;;7.30;99.90;;;;;;5092738;28;20031;-77
2020/12/04 09:45:05;;;;;;;10.48;5.68;;;7.30;99.90;;;;;;5093718;28;20054;-77
2020/12/04 09:47:33;;;;;;;9.02;5.32;;;7.30;99.90;;;;;;5092994;28;20035;-77
2020/12/04 09:49:59;;;;;;;14.07;6.93;;;7.30;99.90;;;;;;5093465;28;20377;-77
2020/12/04 09:52:26;;;;;;;11.07;7.30;;;7.30;99.90;;;;;;5093378;28;20055;-76
2020/12/04 09:54:56;;;;;;;9.55;6.15;;;7.20;99.90;;;;;;5093411;28;20036;-76
2020/12/04 09:57:23;;;;;;;9.15;6.05;;;7.10;99.90;;;;;;5092965;28;20032;-76
2020/12/04 09:59:49;;;;;;;14.25;9.68;;;7.00;99.90;;;;;;5093384;28;20055;-77
2020/12/04 10:02:15;;;;;;;11.23;7.07;;;7.00;99.90;;;;;;5093241;28;20043;-76
2020/12/04 10:04:42;;;;;;;6.90;4.22;;;6.90;99.90;;;;;;5092007;28;20040;-76
2020/12/04 10:07:09;;;;;;;22.17;15.25;;;6.80;99.90;;;;;;5093119;28;20394;-75
2020/12/04 10:09:36;;;;;;;10.52;5.88;;;6.60;99.90;;;;;;5092410;28;20028;-75
2020/12/04 10:12:04;;;;;;;8.75;4.95;;;6.50;99.90;;;;;;5093367;28;20032;-76
2020/12/04 10:14:30;;;;;;;16.65;8.50;;;6.30;99.90;;;;;;5091166;28;20040;-75
2020/12/04 10:16:56;;;;;;;12.02;7.85;;;6.20;99.90;;;;;;5092909;28;20070;-76
2020/12/04 10:19:22;;;;;;;15.40;7.75;;;6.10;99.90;;;;;;5092928;28;20032;-76
2020/12/04 10:21:49;;;;;;;12.30;6.60;;;6.10;99.90;;;;;;5092450;28;20032;-76
2020/12/04 10:24:16;;;;;;;12.40;7.57;;;6.10;99.90;;;;;;5092730;28;20032;-76
2020/12/04 10:26:47;;;;;;;12.88;7.57;;;6.10;99.90;;;;;;5090097;28;20040;-76
2020/12/04 10:29:14;;;;;;;13.63;7.63;;;6.10;99.90;;;;;;5092544;28;20377;-74
2020/12/04 10:31:41;;;;;;;21.67;10.10;;;6.10;99.90;;;;;;5090146;28;20048;-76
2020/12/04 10:34:07;;;;;;;17.17;7.68;;;6.10;99.90;;;;;;5091990;28;20035;-75
2020/12/04 10:36:36;;;;;;;16.05;8.85;;;6.10;99.90;;;;;;5091502;28;20040;-76
2020/12/04 10:39:03;;;;;;;12.55;9.20;;;6.00;99.90;;;;;;5092772;28;20388;-76
2020/12/04 10:41:31;;;;;;;14.30;8.05;;;6.00;99.90;;;;;;5091777;28;20457;-79
2020/12/04 10:43:58;;;;;;;13.25;7.55;;;6.00;99.90;;;;;;5092807;28;20028;-74
2020/12/04 10:46:25;;;;;;;11.45;5.85;;;6.10;99.90;;;;;;5092040;28;20036;-73
2020/12/04 10:48:51;;;;;;;10.52;5.68;;;6.10;99.90;;;;;;5091735;28;20032;-79
2020/12/04 10:51:21;;;;;;;10.10;5.13;;;6.10;99.90;;;;;;5091873;28;20028;-78
2020/12/04 10:53:48;;;;;;;7.40;4.90;;;6.10;99.90;;;;;;5091126;28;20031;-73
2020/12/04 10:56:19;;;;;;;9.00;5.00;;;6.10;99.90;;;;;;5092296;28;20040;-80
2020/12/04 10:58:45;;;;;;;8.07;4.68;;;6.10;99.90;;;;;;5092312;28;20365;-79
2020/12/04 11:01:15;;;;;;;8.35;4.85;;;6.10;99.90;;;;;;5092103;28;20048;-79
2020/12/04 11:06:24;;;;;;;7.20;5.03;;;6.30;99.90;;;;;;5090963;28;20055;-74
2020/12/04 11:08:51;;;;;;;9.75;3.97;;;6.40;99.90;;;;;;5090270;28;20854;-74
2020/12/04 11:11:20;;;;;;;40.00;21.63;;;6.40;99.90;;;;;;5091157;28;20036;-74
2020/12/04 11:13:49;;;;;;;111.15;50.72;;;6.40;99.90;;;;;;5090765;28;20036;-79
2020/12/04 11:16:16;;;;;;;183.80;85.82;;;6.40;99.90;;;;;;5089966;28;20039;-73
2020/12/04 11:18:42;;;;;;;187.07;84.72;;;6.40;99.90;;;;;;5090659;28;20039;-73
2020/12/04 11:21:08;;;;;;;118.07;51.42;;;6.30;99.90;;;;;;5091719;28;20384;-73
2020/12/04 11:23:37;;;;;;;26.75;12.82;;;6.30;99.90;;;;;;5090304;28;20045;-73
2020/12/04 11:26:04;;;;;;;34.40;16.60;;;6.30;99.90;;;;;;5091210;28;20491;-74
2020/12/04 11:28:30;;;;;;;74.53;36.53;;;6.30;99.90;;;;;;5091028;28;20032;-73
2020/12/04 11:30:56;;;;;;;42.33;20.33;;;6.30;99.90;;;;;;5089423;28;20465;-74
2020/12/04 11:33:23;;;;;;;40.58;18.48;;;6.20;99.90;;;;;;5091410;28;20055;-74
2020/12/04 11:35:49;;;;;;;25.95;12.95;;;6.20;99.90;;;;;;5091501;28;20083;-74
2020/12/04 11:38:15;;;;;;;16.08;7.93;;;6.10;99.90;;;;;;5094380;28;20032;-73
2020/12/04 11:40:41;;;;;;;1011.38;353.60;;;6.10;99.90;;;;;;5075878;28;20048;-73
2020/12/04 11:43:08;;;;;;;1384.15;521.08;;;6.10;99.90;;;;;;5093004;28;20385;-74
2020/12/04 11:45:34;;;;;;;199.32;74.40;;;6.10;99.90;;;;;;5094421;28;20032;-73
2020/12/04 11:48:00;;;;;;;134.40;44.75;;;6.10;99.90;;;;;;5095068;28;20055;-73
2020/12/04 11:50:27;;;;;;;80.95;29.23;;;6.10;99.90;;;;;;5094775;28;20047;-74
2020/12/04 11:52:53;;;;;;;128.88;43.30;;;6.10;99.90;;;;;;5094079;28;20036;-73
2020/12/04 11:55:19;;;;;;;236.73;80.45;;;6.20;99.90;;;;;;5076932;28;20365;-74
2020/12/04 11:57:45;;;;;;;66.72;28.02;;;6.20;99.90;;;;;;5093944;28;20029;-74
2020/12/04 12:00:12;;;;;;;346.75;119.30;;;6.20;99.90;;;;;;5095107;28;20028;-74
2020/12/04 12:02:39;;;;;;;84.70;34.13;;;6.30;99.90;;;;;;5093684;28;20059;-74
2020/12/04 12:05:06;;;;;;;160.88;58.08;;;6.30;99.90;;;;;;5094963;28;20453;-74
2020/12/04 12:07:32;;;;;;;280.02;97.97;;;6.30;99.90;;;;;;5094226;28;20044;-73
2020/12/04 12:09:58;;;;;;;62.75;26.83;;;6.30;99.90;;;;;;5094244;28;20051;-73
2020/12/04 12:12:25;;;;;;;29.17;14.02;;;6.40;99.90;;;;;;5094661;28;20048;-75
2020/12/04 12:14:51;;;;;;;66.72;30.13;;;6.40;99.90;;;;;;5093524;28;20484;-74
2020/12/04 12:17:17;;;;;;;128.55;55.28;;;6.30;99.90;;;;;;5093141;28;20484;-73
2020/12/04 12:19:43;;;;;;;34.30;17.15;;;6.40;99.90;;;;;;5093748;28;20028;-73
2020/12/04 12:22:11;;;;;;;16.90;8.98;;;6.40;99.90;;;;;;5094306;28;20040;-75
2020/12/04 12:24:38;;;;;;;13.65;8.57;;;6.30;99.90;;;;;;5093642;28;20035;-74
2020/12/04 12:27:05;;;;;;;26.00;19.67;;;6.30;99.90;;;;;;5094422;28;20357;-75
2020/12/04 12:29:32;;;;;;;15.27;11.23;;;6.30;99.90;;;;;;5094437;28;20039;-74
2020/12/04 12:31:59;;;;;;;15.60;9.73;;;6.30;99.90;;;;;;5093189;28;20047;-74
2020/12/04 12:34:59;;;;;;;12.70;7.10;;;6.30;99.90;;;;;;5093551;28;20043;-74
2020/12/04 12:37:12;;;;;;;11.25;7.38;;;6.30;99.90;;;;;;5092640;28;20036;-74
2020/12/04 12:39:39;;;;;;;11.35;7.32;;;6.30;99.90;;;;;;5091282;28;20040;-74
2020/12/04 12:42:10;;;;;;;10.48;6.75;;;6.30;99.90;;;;;;5092672;28;20035;-75
2020/12/04 12:44:37;;;;;;;12.43;7.03;;;6.30;99.90;;;;;;5092811;28;20047;-73
2020/12/04 12:47:07;;;;;;;12.88;8.10;;;6.20;99.90;;;;;;5093756;28;20039;-74
2020/12/04 12:49:34;;;;;;;15.43;8.60;;;6.20;99.90;;;;;;5092458;28;20043;-75
2020/12/04 12:52:00;;;;;;;16.02;9.27;;;6.10;99.90;;;;;;5093471;28;20032;-75
2020/12/04 12:54:27;;;;;;;16.52;11.10;;;6.10;99.90;;;;;;5093778;28;20028;-76
2020/12/04 12:56:55;;;;;;;16.77;9.85;;;6.00;99.90;;;;;;5073971;28;20044;-75
2020/12/04 12:59:22;;;;;;;19.38;9.82;;;6.00;99.90;;;;;;5092816;28;20044;-75